createdAt,value
2018-03-01T00:00:19.055Z,5.2
2018-03-01T00:02:18.784Z,5.7
2018-03-01T00:04:18.496Z,5
2018-03-01T00:06:18.586Z,4.9
2018-03-01T00:08:19.320Z,4.2
2018-03-01T00:10:18.560Z,4.8
2018-03-01T00:12:19.331Z,5.1
2018-03-01T00:14:19.086Z,4.7
2018-03-01T00:16:18.827Z,5.7
2018-03-01T00:18:18.632Z,4.6
2018-03-01T00:20:19.369Z,4.6
2018-03-01T00:22:19.110Z,4.5
2018-03-01T00:24:18.950Z,4.6
2018-03-01T00:26:18.495Z,6.4
2018-03-01T00:28:19.211Z,5.6
2018-03-01T00:30:18.950Z,5.1
2018-03-01T00:32:18.692Z,5.1
2018-03-01T00:34:19.406Z,5.5
2018-03-01T00:36:18.433Z,5.6
2018-03-01T00:38:19.171Z,5.5
2018-03-01T00:40:19.383Z,6.8
2018-03-01T00:42:19.094Z,4.8
2018-03-01T00:44:18.821Z,5.4
2018-03-01T00:46:19.350Z,4.5
2018-03-01T00:48:19.109Z,6.4
2018-03-01T00:50:18.843Z,4.9
2018-03-01T00:52:18.562Z,5.5
2018-03-01T00:54:19.322Z,4.8
2018-03-01T00:56:18.909Z,4.5
2018-03-01T00:58:18.652Z,5.6
2018-03-01T01:00:19.429Z,5.2
2018-03-01T01:02:19.162Z,4.3
2018-03-01T01:04:18.910Z,4.8
2018-03-01T01:06:19.041Z,4.5
2018-03-01T01:08:18.777Z,4.4
2018-03-01T01:10:18.952Z,4.7
2018-03-01T01:12:18.776Z,5.2
2018-03-01T01:14:18.547Z,5
2018-03-01T01:16:19.050Z,5.4
2018-03-01T01:18:18.859Z,4.5
2018-03-01T01:20:18.584Z,3.9
2018-03-01T01:22:19.291Z,6
2018-03-01T01:24:19.067Z,5.7
2018-03-01T01:26:19.161Z,5.3
2018-03-01T01:28:18.898Z,5.2
2018-03-01T01:30:18.807Z,4.9
2018-03-01T01:32:18.540Z,3.9
2018-03-01T01:34:19.291Z,4.5
2018-03-01T01:36:19.321Z,6.1
2018-03-01T01:38:19.046Z,4.2
2018-03-01T01:40:19.283Z,4.2
2018-03-01T01:42:19.024Z,4.7
2018-03-01T01:44:18.756Z,3.7
2018-03-01T01:46:18.813Z,4.3
2018-03-01T01:48:18.534Z,4.6
2018-03-01T01:50:19.258Z,4.7
2018-03-01T01:52:19.000Z,5.5
2018-03-01T01:54:18.736Z,4.3
2018-03-01T01:56:19.281Z,3
2018-03-01T01:58:19.013Z,4
2018-03-01T02:00:18.730Z,4.3
2018-03-01T02:02:18.468Z,4
2018-03-01T02:04:19.207Z,4.9
2018-03-01T02:06:18.710Z,4.8
2018-03-01T02:08:19.430Z,3.2
2018-03-01T02:10:18.630Z,3.4
2018-03-01T02:12:19.402Z,4.5
2018-03-01T02:14:19.124Z,5.7
2018-03-01T02:16:19.234Z,4.7
2018-03-01T02:18:19.084Z,5.4
2018-03-01T02:20:18.805Z,4.1
2018-03-01T02:22:18.538Z,5.2
2018-03-01T02:24:19.250Z,4.4
2018-03-01T02:26:18.807Z,5
2018-03-01T02:28:18.534Z,4.4
2018-03-01T02:30:19.263Z,3.6
2018-03-01T02:32:18.986Z,4.2
2018-03-01T02:34:18.711Z,5.4
2018-03-01T02:36:19.224Z,4.6
2018-03-01T02:38:18.981Z,5.2
2018-03-01T02:40:19.181Z,5.7
2018-03-01T02:42:18.935Z,3.9
2018-03-01T02:44:18.668Z,4.3
2018-03-01T02:46:19.253Z,5.1
2018-03-01T02:48:18.979Z,4.1
2018-03-01T02:50:18.708Z,4.7
2018-03-01T02:52:19.406Z,4.3
2018-03-01T02:54:19.130Z,3.2
2018-03-01T02:56:19.281Z,3.9
2018-03-01T02:58:18.986Z,4
2018-03-01T03:00:18.719Z,4.4
2018-03-01T03:02:19.449Z,4.6
2018-03-01T03:04:19.160Z,4.7
2018-03-01T03:06:18.694Z,4
2018-03-01T03:08:19.404Z,4.5
2018-03-01T03:10:18.621Z,4.4
2018-03-01T03:12:19.347Z,3.4
2018-03-01T03:14:19.071Z,4.2
2018-03-01T03:16:18.464Z,4.3
2018-03-01T03:18:19.272Z,3.8
2018-03-01T03:20:19.008Z,4.1
2018-03-01T03:22:18.742Z,3.7
2018-03-01T03:24:18.445Z,3.8
2018-03-01T03:26:18.471Z,3.6
2018-03-01T03:28:19.210Z,4.3
2018-03-01T03:30:18.958Z,3.4
2018-03-01T03:32:18.702Z,3.5
2018-03-01T03:34:19.445Z,5.3
2018-03-01T03:36:18.601Z,5.2
2018-03-01T03:38:19.441Z,3.1
2018-03-01T03:40:18.720Z,3.3
2018-03-01T03:42:18.521Z,4.3
2018-03-01T03:44:19.372Z,3.6
2018-03-01T03:46:18.657Z,3.7
2018-03-01T03:48:18.470Z,3.3
2018-03-01T03:50:19.274Z,3.9
2018-03-01T03:52:19.109Z,4
2018-03-01T03:54:18.931Z,3.9
2018-03-01T03:56:18.647Z,4.2
2018-03-01T03:58:18.469Z,3.9
2018-03-01T04:00:19.277Z,3.7
2018-03-01T04:02:19.063Z,4.5
2018-03-01T04:04:18.895Z,3.6
2018-03-01T04:06:19.188Z,2.9
2018-03-01T04:08:19.026Z,3.4
2018-03-01T04:10:19.358Z,4.1
2018-03-01T04:12:19.194Z,3.1
2018-03-01T04:14:19.041Z,4.5
2018-03-01T04:16:18.755Z,4.3
2018-03-01T04:18:18.646Z,3.3
2018-03-01T04:20:19.455Z,4.3
2018-03-01T04:22:19.262Z,3.6
2018-03-01T04:24:19.098Z,3
2018-03-01T04:26:19.341Z,3.8
2018-03-01T04:28:19.124Z,3.4
2018-03-01T04:30:18.948Z,4.3
2018-03-01T04:32:18.758Z,3.1
2018-03-01T04:34:18.573Z,3.8
2018-03-01T04:36:19.271Z,3.9
2018-03-01T04:38:19.094Z,3.6
2018-03-01T04:40:19.367Z,3.6
2018-03-01T04:42:19.213Z,4.2
2018-03-01T04:44:19.030Z,4.2
2018-03-01T04:46:19.236Z,4.1
2018-03-01T04:48:19.060Z,4.2
2018-03-01T04:50:18.889Z,3.9
2018-03-01T04:52:18.703Z,2.8
2018-03-01T04:54:18.496Z,3.2
2018-03-01T04:56:19.212Z,3.3
2018-03-01T04:58:19.043Z,3.9
2018-03-01T05:00:18.942Z,3.2
2018-03-01T05:02:18.756Z,3.7
2018-03-01T05:04:18.546Z,4.1
2018-03-01T05:06:19.223Z,3.7
2018-03-01T05:08:19.053Z,3.4
2018-03-01T05:10:19.358Z,5.7
2018-03-01T05:12:19.195Z,5.1
2018-03-01T05:14:19.019Z,3.2
2018-03-01T05:16:19.277Z,4.2
2018-03-01T05:18:19.183Z,3.5
2018-03-01T05:20:19.024Z,4.8
2018-03-01T05:22:18.855Z,3.8
2018-03-01T05:24:18.676Z,3.3
2018-03-01T05:26:18.586Z,4.2
2018-03-01T05:28:19.404Z,4.9
2018-03-01T05:30:19.251Z,4.8
2018-03-01T05:32:19.070Z,4.3
2018-03-01T05:34:18.872Z,3.5
2018-03-01T05:36:18.605Z,5.4
2018-03-01T05:38:19.400Z,3.2
2018-03-01T05:40:18.760Z,4
2018-03-01T05:42:18.587Z,3.4
2018-03-01T05:44:19.436Z,4.6
2018-03-01T05:46:19.154Z,3.9
2018-03-01T05:48:18.949Z,3.6
2018-03-01T05:50:18.772Z,3.8
2018-03-01T05:52:18.586Z,3.4
2018-03-01T05:54:19.405Z,4.6
2018-03-01T05:56:18.811Z,4.8
2018-03-01T05:58:18.629Z,3.2
2018-03-01T06:00:19.435Z,3.5
2018-03-01T06:02:19.263Z,3.7
2018-03-01T06:04:19.063Z,4.1
2018-03-01T06:06:18.809Z,3.8
2018-03-01T06:08:18.616Z,4.5
2018-03-01T06:10:18.904Z,4.2
2018-03-01T06:12:18.704Z,3.5
2018-03-01T06:14:18.515Z,4.6
2018-03-01T06:16:19.222Z,3.3
2018-03-01T06:18:19.104Z,6.6
2018-03-01T06:20:18.908Z,3.4
2018-03-01T06:22:18.723Z,4.3
2018-03-01T06:24:18.563Z,3
2018-03-01T06:26:18.895Z,3.4
2018-03-01T06:28:18.700Z,5.6
2018-03-01T06:30:18.506Z,5.6
2018-03-01T06:32:19.327Z,4.2
2018-03-01T06:34:19.159Z,3.9
2018-03-01T06:36:18.889Z,4.3
2018-03-01T06:38:18.705Z,5.7
2018-03-01T06:40:19.003Z,5.8
2018-03-01T06:42:18.819Z,4.2
2018-03-01T06:44:18.636Z,3.8
2018-03-01T06:46:19.327Z,5.1
2018-03-01T06:48:19.151Z,5.6
2018-03-01T06:50:18.977Z,6.4
2018-03-01T06:52:18.779Z,6
2018-03-01T06:54:18.604Z,4
2018-03-01T06:56:18.809Z,5
2018-03-01T06:58:18.626Z,4.6
2018-03-01T07:00:19.436Z,4.6
2018-03-01T07:02:19.234Z,5
2018-03-01T07:04:19.066Z,4.1
2018-03-01T07:06:18.505Z,6.1
2018-03-01T07:08:19.356Z,4.7
2018-03-01T07:10:18.703Z,4.9
2018-03-01T07:12:18.544Z,4.5
2018-03-01T07:14:19.361Z,4.4
2018-03-01T07:16:19.026Z,5.9
2018-03-01T07:18:18.919Z,5
2018-03-01T07:20:18.738Z,6
2018-03-01T07:22:18.570Z,7.5
2018-03-01T07:24:19.380Z,5.1
2018-03-01T07:26:19.076Z,6.3
2018-03-01T07:28:18.902Z,4.8
2018-03-01T07:30:18.744Z,5.1
2018-03-01T07:32:18.554Z,6.1
2018-03-01T07:34:19.381Z,4.6
2018-03-01T07:36:18.651Z,6.5
2018-03-01T07:38:19.454Z,5.7
2018-03-01T07:40:18.745Z,4.9
2018-03-01T07:42:18.547Z,5.6
2018-03-01T07:44:19.357Z,6.9
2018-03-01T07:46:18.653Z,4.8
2018-03-01T07:48:19.456Z,5.7
2018-03-01T07:50:19.273Z,6.4
2018-03-01T07:52:19.108Z,4.4
2018-03-01T07:54:18.906Z,5.3
2018-03-01T07:56:18.605Z,6.2
2018-03-01T07:58:18.516Z,6.5
2018-03-01T08:00:19.333Z,6.7
2018-03-01T08:02:19.150Z,6.8
2018-03-01T08:04:18.969Z,7.3
2018-03-01T08:06:18.712Z,7.5
2018-03-01T08:08:18.577Z,6.3
2018-03-01T08:10:18.887Z,6
2018-03-01T08:12:18.735Z,4.2
2018-03-01T08:14:18.539Z,6.5
2018-03-01T08:16:19.357Z,6.5
2018-03-01T08:18:19.235Z,5.5
2018-03-01T08:20:19.080Z,5.8
2018-03-01T08:22:18.903Z,5.4
2018-03-01T08:24:18.728Z,6.3
2018-03-01T08:26:19.004Z,7
2018-03-01T08:28:18.824Z,5.9
2018-03-01T08:30:18.641Z,7.7
2018-03-01T08:32:19.446Z,7.1
2018-03-01T08:34:19.269Z,5.9
2018-03-01T08:36:18.516Z,5.5
2018-03-01T08:38:19.337Z,7.4
2018-03-01T08:40:18.674Z,9.3
2018-03-01T08:42:18.505Z,4.6
2018-03-01T08:44:19.318Z,5.3
2018-03-01T08:46:18.924Z,6.9
2018-03-01T08:48:18.720Z,5.3
2018-03-01T08:50:18.616Z,7.1
2018-03-01T08:52:19.394Z,6.3
2018-03-01T08:54:19.208Z,6.2
2018-03-01T08:56:19.064Z,7.6
2018-03-01T08:58:18.881Z,5.6
2018-03-01T09:00:18.717Z,5.9
2018-03-01T09:02:18.521Z,5.1
2018-03-01T09:04:19.335Z,6.2
2018-03-01T09:06:18.619Z,4
2018-03-01T09:08:19.472Z,6.2
2018-03-01T09:10:18.820Z,4.4
2018-03-01T09:12:18.675Z,4.5
2018-03-01T09:14:18.497Z,6.2
2018-03-01T09:16:19.211Z,6
2018-03-01T09:18:19.098Z,5.2
2018-03-01T09:20:18.910Z,4
2018-03-01T09:22:18.712Z,4.9
2018-03-01T09:24:18.519Z,5
2018-03-01T09:26:19.198Z,5.3
2018-03-01T09:28:19.031Z,4.5
2018-03-01T09:30:18.881Z,5
2018-03-01T09:32:18.671Z,4.7
2018-03-01T09:34:18.510Z,7
2018-03-01T09:36:19.195Z,4.7
2018-03-01T09:38:19.016Z,5.7
2018-03-01T09:40:19.336Z,5.6
2018-03-01T09:42:19.172Z,4.1
2018-03-01T09:44:19.022Z,6.1
2018-03-01T09:46:19.279Z,5.5
2018-03-01T09:48:19.104Z,6.6
2018-03-01T09:50:18.952Z,6.5
2018-03-01T09:52:18.768Z,6.3
2018-03-01T09:54:18.604Z,5
2018-03-01T09:56:19.319Z,6.3
2018-03-01T09:58:19.144Z,6
2018-03-01T10:00:19.042Z,5
2018-03-01T10:02:18.903Z,5.8
2018-03-01T10:04:18.736Z,5
2018-03-01T10:06:19.060Z,6.2
2018-03-01T10:08:18.899Z,4.5
2018-03-01T10:10:19.215Z,6.2
2018-03-01T10:12:19.036Z,6.1
2018-03-01T10:14:18.854Z,6.2
2018-03-01T10:16:19.112Z,7.3
2018-03-01T10:18:19.024Z,4.1
2018-03-01T10:20:18.867Z,6.3
2018-03-01T10:22:18.686Z,6.3
2018-03-01T10:24:18.537Z,7.8
2018-03-01T10:26:19.251Z,5.8
2018-03-01T10:28:19.085Z,4.3
2018-03-01T10:30:18.919Z,4.7
2018-03-01T10:32:18.749Z,4.8
2018-03-01T10:34:18.585Z,5.3
2018-03-01T10:36:18.848Z,5.8
2018-03-01T10:38:18.687Z,4.5
2018-03-01T10:40:18.988Z,4.9
2018-03-01T10:42:18.827Z,4.9
2018-03-01T10:44:18.658Z,5.1
2018-03-01T10:46:18.506Z,5.2
2018-03-01T10:48:19.318Z,4.3
2018-03-01T10:50:19.177Z,4.2
2018-03-01T10:52:19.015Z,5.2
2018-03-01T10:54:18.859Z,4.6
2018-03-01T10:56:18.556Z,5.4
2018-03-01T10:58:19.399Z,6.5
2018-03-01T11:00:19.238Z,5
2018-03-01T11:02:19.081Z,4.9
2018-03-01T11:04:18.932Z,5.5
2018-03-01T11:06:18.667Z,4.6
2018-03-01T11:08:18.493Z,4.7
2018-03-01T11:10:18.779Z,5.2
2018-03-01T11:12:18.612Z,5.3
2018-03-01T11:14:19.432Z,5.3
2018-03-01T11:16:19.226Z,5.9
2018-03-01T11:18:19.120Z,5.8
2018-03-01T11:20:18.986Z,5
2018-03-01T11:22:18.828Z,5.2
2018-03-01T11:24:18.670Z,5.7
2018-03-01T11:26:19.432Z,4.7
2018-03-01T11:28:19.257Z,5
2018-03-01T11:30:19.082Z,4.3
2018-03-01T11:32:18.931Z,5.3
2018-03-01T11:34:18.759Z,4.5
2018-03-01T11:36:18.643Z,5.5
2018-03-01T11:38:19.481Z,5
2018-03-01T11:40:18.850Z,5.1
2018-03-01T11:42:18.698Z,4.6
2018-03-01T11:44:18.539Z,6
2018-03-01T11:46:19.329Z,6
2018-03-01T11:48:19.198Z,5.2
2018-03-01T11:50:19.045Z,4.1
2018-03-01T11:52:18.878Z,5.3
2018-03-01T11:54:18.723Z,4.6
2018-03-01T11:56:18.497Z,5.1
2018-03-01T11:58:19.346Z,5
2018-03-01T12:00:19.198Z,5.2
2018-03-01T12:02:19.059Z,4.6
2018-03-01T12:04:18.891Z,4.4
2018-03-01T12:06:19.117Z,4.8
2018-03-01T12:08:18.949Z,5.5
2018-03-01T12:10:19.253Z,5.1
2018-03-01T12:12:19.086Z,4.3
2018-03-01T12:14:18.918Z,3.6
2018-03-01T12:16:19.297Z,6.1
2018-03-01T12:18:19.211Z,5.4
2018-03-01T12:20:19.072Z,3.9
2018-03-01T12:22:18.904Z,3.8
2018-03-01T12:24:18.736Z,5.4
2018-03-01T12:26:19.453Z,5.1
2018-03-01T12:28:19.296Z,4.7
2018-03-01T12:30:19.145Z,4.9
2018-03-01T12:32:19.014Z,4.7
2018-03-01T12:34:18.837Z,5
2018-03-01T12:36:18.555Z,4.9
2018-03-01T12:38:19.388Z,5.5
2018-03-01T12:40:18.681Z,5.2
2018-03-01T12:42:18.539Z,3.8
2018-03-01T12:44:19.392Z,4
2018-03-01T12:46:18.602Z,3.9
2018-03-01T12:48:19.442Z,4.2
2018-03-01T12:50:19.315Z,5.7
2018-03-01T12:52:19.165Z,4.3
2018-03-01T12:54:19.015Z,4.3
2018-03-01T12:56:19.235Z,4.2
2018-03-01T12:58:19.060Z,4.9
2018-03-01T13:00:18.938Z,4.9
2018-03-01T13:02:18.786Z,5.2
2018-03-01T13:04:18.626Z,4.9
2018-03-01T13:06:19.375Z,4.6
2018-03-01T13:08:19.227Z,4.5
2018-03-01T13:10:18.582Z,4.6
2018-03-01T13:12:19.435Z,4.3
2018-03-01T13:14:19.294Z,4.5
2018-03-01T13:16:19.160Z,6.4
2018-03-01T13:18:19.120Z,4.1
2018-03-01T13:20:18.980Z,4.6
2018-03-01T13:22:18.839Z,5.4
2018-03-01T13:24:18.705Z,5.1
2018-03-01T13:26:19.429Z,5.4
2018-03-01T13:28:19.275Z,4.7
2018-03-01T13:30:19.111Z,5.3
2018-03-01T13:32:18.941Z,3.9
2018-03-01T13:34:18.769Z,4.7
2018-03-01T13:36:19.011Z,5.7
2018-03-01T13:38:18.919Z,4.9
2018-03-01T13:40:19.413Z,5.4
2018-03-01T13:42:19.270Z,4.6
2018-03-01T13:44:19.122Z,5.4
2018-03-01T13:46:19.456Z,4.7
2018-03-01T13:48:19.291Z,5.3
2018-03-01T13:50:19.147Z,5.4
2018-03-01T13:52:18.993Z,5.3
2018-03-01T13:54:18.832Z,5.9
2018-03-01T13:56:19.193Z,5.8
2018-03-01T13:58:19.050Z,5.3
2018-03-01T14:00:18.881Z,4.8
2018-03-01T14:02:18.734Z,4.7
2018-03-01T14:04:18.586Z,6
2018-03-01T14:06:18.948Z,5.4
2018-03-01T14:08:18.819Z,5
2018-03-01T14:10:19.209Z,5
2018-03-01T14:12:19.334Z,5.4
2018-03-01T14:14:19.193Z,5.4
2018-03-01T14:16:18.912Z,5.1
2018-03-01T14:18:18.815Z,5
2018-03-01T14:20:18.664Z,5
2018-03-01T14:22:18.520Z,6.5
2018-03-01T14:24:19.390Z,4.8
2018-03-01T14:26:18.668Z,6.1
2018-03-01T14:28:18.506Z,4.9
2018-03-01T14:30:19.358Z,5.2
2018-03-01T14:32:19.210Z,6.2
2018-03-01T14:34:19.056Z,6.6
2018-03-01T14:36:18.967Z,6.6
2018-03-01T14:38:18.811Z,6.4
2018-03-01T14:40:19.136Z,4.7
2018-03-01T14:42:18.973Z,6.3
2018-03-01T14:44:18.838Z,6.7
2018-03-01T14:46:19.118Z,5.1
2018-03-01T14:48:18.967Z,5.9
2018-03-01T14:50:18.821Z,6
2018-03-01T14:52:18.662Z,6.6
2018-03-01T14:54:19.508Z,8.4
2018-03-01T14:56:19.268Z,6.5
2018-03-01T14:58:19.117Z,6.1
2018-03-01T15:00:18.971Z,6.6
2018-03-01T15:02:19.137Z,6.5
2018-03-01T15:04:18.995Z,5.5
2018-03-01T15:06:19.279Z,5.7
2018-03-01T15:08:19.147Z,6.1
2018-03-01T15:10:19.467Z,5.9
2018-03-01T15:12:19.293Z,5.7
2018-03-01T15:14:19.162Z,6.1
2018-03-01T15:16:19.404Z,6.2
2018-03-01T15:18:19.343Z,7.1
2018-03-01T15:20:19.262Z,6.9
2018-03-01T15:22:19.121Z,5.1
2018-03-01T15:24:18.967Z,6.1
2018-03-01T15:26:18.686Z,5.3
2018-03-01T15:28:18.536Z,6.2
2018-03-01T15:30:19.406Z,6.5
2018-03-01T15:32:19.261Z,8.2
2018-03-01T15:34:19.124Z,7
2018-03-01T15:36:19.427Z,6.8
2018-03-01T15:38:19.295Z,6.8
2018-03-01T15:40:18.683Z,6.5
2018-03-01T15:42:18.513Z,7.2
2018-03-01T15:44:19.336Z,6.5
2018-03-01T15:46:18.595Z,7.3
2018-03-01T15:48:19.439Z,7.7
2018-03-01T15:50:19.318Z,7.9
2018-03-01T15:52:19.200Z,7.3
2018-03-01T15:54:19.052Z,6.5
2018-03-01T15:56:18.920Z,6.1
2018-03-01T15:58:18.769Z,7.2
2018-03-01T16:00:18.650Z,7.2
2018-03-01T16:02:19.488Z,7.1
2018-03-01T16:04:19.375Z,8.7
2018-03-01T16:06:19.138Z,7.1
2018-03-01T16:08:19.029Z,7.5
2018-03-01T16:10:19.335Z,7.3
2018-03-01T16:12:19.190Z,7.6
2018-03-01T16:14:19.012Z,8.3
2018-03-01T16:16:18.746Z,8.5
2018-03-01T16:18:18.659Z,6.2
2018-03-01T16:20:19.555Z,7.3
2018-03-01T16:22:19.399Z,8.3
2018-03-01T16:24:19.233Z,7
2018-03-01T16:26:18.534Z,7.9
2018-03-01T16:28:19.390Z,7.1
2018-03-01T16:30:19.242Z,6.5
2018-03-01T16:32:19.091Z,6.5
2018-03-01T16:34:18.933Z,7.6
2018-03-01T16:36:18.694Z,9.2
2018-03-01T16:38:18.527Z,7
2018-03-01T16:40:18.991Z,6.9
2018-03-01T16:42:18.855Z,8
2018-03-01T16:44:18.681Z,8.2
2018-03-01T16:46:18.932Z,7
2018-03-01T16:48:18.790Z,6.6
2018-03-01T16:50:18.644Z,7.7
2018-03-01T16:52:19.480Z,6.6
2018-03-01T16:54:19.323Z,7.7
2018-03-01T16:56:19.142Z,5.8
2018-03-01T16:58:19.002Z,6.1
2018-03-01T17:00:18.853Z,5.5
2018-03-01T17:02:18.685Z,7.1
2018-03-01T17:04:18.524Z,5.5
2018-03-01T17:06:18.818Z,6.9
2018-03-01T17:08:18.683Z,6.3
2018-03-01T17:10:19.062Z,6
2018-03-01T17:12:18.888Z,6.9
2018-03-01T17:14:18.729Z,7.7
2018-03-01T17:16:18.502Z,7.5
2018-03-01T17:18:19.421Z,7.5
2018-03-01T17:20:19.401Z,6.4
2018-03-01T17:22:19.234Z,7.4
2018-03-01T17:24:19.083Z,7.5
2018-03-01T17:26:18.850Z,7
2018-03-01T17:28:18.669Z,7.4
2018-03-01T17:30:18.548Z,5
2018-03-01T17:32:19.387Z,7.7
2018-03-01T17:34:19.227Z,7.7
2018-03-01T17:36:19.001Z,7.9
2018-03-01T17:38:18.829Z,7.4
2018-03-01T17:40:19.168Z,8.1
2018-03-01T17:42:19.017Z,7.5
2018-03-01T17:44:18.834Z,7.6
2018-03-01T17:46:18.566Z,8
2018-03-01T17:48:19.431Z,7.8
2018-03-01T17:50:19.266Z,8.2
2018-03-01T17:52:19.101Z,8.5
2018-03-01T17:54:18.953Z,7.4
2018-03-01T17:56:18.655Z,6.8
2018-03-01T17:58:18.493Z,7.2
2018-03-01T18:00:19.372Z,8.6
2018-03-01T18:02:19.236Z,6.5
2018-03-01T18:04:19.075Z,7.6
2018-03-01T18:06:18.979Z,6.8
2018-03-01T18:08:18.793Z,7.1
2018-03-01T18:10:19.087Z,7.8
2018-03-01T18:12:18.933Z,7.7
2018-03-01T18:14:18.758Z,8.8
2018-03-01T18:16:19.146Z,6.8
2018-03-01T18:18:19.075Z,8
2018-03-01T18:20:18.937Z,7
2018-03-01T18:22:18.821Z,7.1
2018-03-01T18:24:18.652Z,7.9
2018-03-01T18:26:19.000Z,7.7
2018-03-01T18:28:18.911Z,7.4
2018-03-01T18:30:18.818Z,8.1
2018-03-01T18:32:18.650Z,6.6
2018-03-01T18:34:18.475Z,8.4
2018-03-01T18:36:19.214Z,7.3
2018-03-01T18:38:19.042Z,6.8
2018-03-01T18:40:19.368Z,7.1
2018-03-01T18:42:19.219Z,6.4
2018-03-01T18:44:19.077Z,8.2
2018-03-01T18:46:18.901Z,9.2
2018-03-01T18:48:18.760Z,7.4
2018-03-01T18:50:18.593Z,6.2
2018-03-01T18:52:19.424Z,7.3
2018-03-01T18:54:19.276Z,8.3
2018-03-01T18:56:18.993Z,9.3
2018-03-01T18:58:18.852Z,7.6
2018-03-01T19:00:18.679Z,7.2
2018-03-01T19:02:18.510Z,8.9
2018-03-01T19:04:19.345Z,8.2
2018-03-01T19:06:19.076Z,7.4
2018-03-01T19:08:18.926Z,9.3
2018-03-01T19:10:19.239Z,7.6
2018-03-01T19:12:19.063Z,9.2
2018-03-01T19:14:18.914Z,8.1
2018-03-01T19:16:18.789Z,7.8
2018-03-01T19:18:18.702Z,7.3
2018-03-01T19:20:18.548Z,6
2018-03-01T19:22:19.383Z,7.2
2018-03-01T19:24:19.211Z,8.8
2018-03-01T19:26:19.036Z,7.8
2018-03-01T19:28:18.884Z,7.6
2018-03-01T19:30:18.706Z,8.3
2018-03-01T19:32:18.522Z,7.8
2018-03-01T19:34:19.356Z,6.7
2018-03-01T19:36:18.664Z,6.8
2018-03-01T19:38:18.514Z,7.3
2018-03-01T19:40:18.798Z,7.6
2018-03-01T19:42:18.635Z,6.5
2018-03-01T19:44:19.485Z,7.6
2018-03-01T19:46:19.335Z,8.2
2018-03-01T19:48:19.170Z,8.8
2018-03-01T19:50:19.012Z,8.4
2018-03-01T19:52:18.862Z,8.4
2018-03-01T19:54:18.706Z,6.4
2018-03-01T19:56:18.974Z,8.2
2018-03-01T19:58:18.844Z,8.9
2018-03-01T20:00:18.702Z,6.8
2018-03-01T20:02:18.535Z,7.6
2018-03-01T20:04:19.376Z,7
2018-03-01T20:06:18.651Z,7.6
2018-03-01T20:08:19.474Z,8.4
2018-03-01T20:10:18.820Z,7.2
2018-03-01T20:12:18.660Z,6.9
2018-03-01T20:14:18.468Z,7.2
2018-03-01T20:16:19.873Z,7.4
2018-03-01T20:18:18.755Z,9
2018-03-01T20:20:18.662Z,8.7
2018-03-01T20:22:18.477Z,6.9
2018-03-01T20:24:19.309Z,7.5
2018-03-01T20:26:19.359Z,7.4
2018-03-01T20:28:19.218Z,8.1
2018-03-01T20:30:19.070Z,8.4
2018-03-01T20:32:18.897Z,9
2018-03-01T20:34:18.732Z,7.9
2018-03-01T20:36:19.295Z,6.4
2018-03-01T20:38:19.192Z,7.2
2018-03-01T20:40:18.498Z,8.3
2018-03-01T20:42:19.345Z,9
2018-03-01T20:44:19.168Z,9
2018-03-01T20:46:18.914Z,7.4
2018-03-01T20:48:18.726Z,7.1
2018-03-01T20:50:18.548Z,9.6
2018-03-01T20:52:19.401Z,6.2
2018-03-01T20:54:19.233Z,8.3
2018-03-01T20:56:19.228Z,7.1
2018-03-01T20:58:19.120Z,6.5
2018-03-01T21:00:18.975Z,7.4
2018-03-01T21:02:18.801Z,8
2018-03-01T21:04:18.696Z,8.2
2018-03-01T21:06:19.089Z,8.7
2018-03-01T21:08:18.946Z,8.3
2018-03-01T21:10:19.232Z,7.6
2018-03-01T21:12:19.343Z,7
2018-03-01T21:14:19.172Z,9.7
2018-03-01T21:16:19.461Z,6.3
2018-03-01T21:18:18.880Z,8.3
2018-03-01T21:20:18.710Z,8.9
2018-03-01T21:22:18.523Z,7.5
2018-03-01T21:24:19.361Z,8.4
2018-03-01T21:26:19.134Z,8
2018-03-01T21:28:18.960Z,8.3
2018-03-01T21:30:18.782Z,8
2018-03-01T21:32:18.631Z,7.7
2018-03-01T21:34:19.476Z,7.6
2018-03-01T21:36:18.974Z,8
2018-03-01T21:38:18.785Z,8
2018-03-01T21:40:19.070Z,9.3
2018-03-01T21:42:18.901Z,7.4
2018-03-01T21:44:18.727Z,9.4
2018-03-01T21:46:19.035Z,9.4
2018-03-01T21:48:18.854Z,7.9
2018-03-01T21:50:18.703Z,6
2018-03-01T21:52:18.522Z,7.5
2018-03-01T21:54:19.340Z,9.8
2018-03-01T21:56:18.646Z,7.3
2018-03-01T21:58:19.474Z,7.9
2018-03-01T22:00:19.439Z,7.8
2018-03-01T22:02:19.270Z,9.7
2018-03-01T22:04:19.086Z,7.9
2018-03-01T22:06:18.895Z,8.4
2018-03-01T22:08:18.699Z,9.2
2018-03-01T22:10:18.984Z,7.4
2018-03-01T22:12:18.814Z,8.2
2018-03-01T22:14:18.619Z,8.9
2018-03-01T22:16:18.916Z,7.7
2018-03-01T22:18:18.783Z,7.7
2018-03-01T22:20:18.604Z,8.3
2018-03-01T22:22:19.419Z,8.1
2018-03-01T22:24:19.260Z,7
2018-03-01T22:26:18.959Z,9
2018-03-01T22:28:18.784Z,10.7
2018-03-01T22:30:18.593Z,8
2018-03-01T22:32:19.448Z,8
2018-03-01T22:34:19.274Z,9.4
2018-03-01T22:36:18.583Z,11.1
2018-03-01T22:38:19.405Z,7.8
2018-03-01T22:40:19.006Z,8
2018-03-01T22:42:18.837Z,9.5
2018-03-01T22:44:18.669Z,7.7
2018-03-01T22:46:19.454Z,8.8
2018-03-01T22:48:19.296Z,8.5
2018-03-01T22:50:19.172Z,8.8
2018-03-01T22:52:19.030Z,7.3
2018-03-01T22:54:18.846Z,8.7
2018-03-01T22:56:18.527Z,7.8
2018-03-01T22:58:19.343Z,8
2018-03-01T23:00:19.182Z,10.2
2018-03-01T23:02:18.997Z,6.8
2018-03-01T23:04:18.840Z,9.3
2018-03-01T23:06:18.569Z,8.9
2018-03-01T23:08:19.390Z,7.7
2018-03-01T23:10:18.697Z,7.9
2018-03-01T23:12:18.512Z,8.8
2018-03-01T23:14:19.316Z,5.9
2018-03-01T23:16:18.649Z,7.4
2018-03-01T23:18:18.579Z,6.8
2018-03-01T23:20:19.418Z,9.2
2018-03-01T23:22:19.265Z,9.3
2018-03-01T23:24:19.073Z,8.5
2018-03-01T23:26:19.314Z,8.8
2018-03-01T23:28:19.131Z,7.7
2018-03-01T23:30:18.978Z,9.2
2018-03-01T23:32:18.798Z,9.5
2018-03-01T23:34:18.605Z,9.9
2018-03-01T23:36:18.852Z,7.6
2018-03-01T23:38:18.693Z,8.3
2018-03-01T23:40:18.989Z,8.8
2018-03-01T23:42:18.812Z,9.7
2018-03-01T23:44:18.622Z,7.2
2018-03-01T23:46:19.429Z,8.2
2018-03-01T23:48:19.268Z,8.7
2018-03-01T23:50:19.088Z,8.7
2018-03-01T23:52:18.930Z,7.7
2018-03-01T23:54:18.764Z,9
2018-03-01T23:56:19.041Z,7.7
2018-03-01T23:58:18.871Z,9.3
